CYHZ

Halifax / Stanfield International Airport

ICAO Code CYHZ
IATA Code YHZ
Name Halifax / Stanfield International Airport
Location Halifax, Nova Scotia, CA
Elevation 477 Feet / 145.4 Meters
Latitude 44.88079834
Longitude -63.50859833
METAR CYHZ 211000Z 22005KT 15SM FEW220 17/13 A2983 RMK CI2 SLP104 DENSITY ALT 900FT
Extra information Display Charts and CFS
Display NOTAMS
Runway Length Width Surface Elevation
05 10500 ft 200 ft ASP 449 ft
14 7700 ft 200 ft ASP 435 ft
23 10500 ft 200 ft ASP 443 ft
32 7700 ft 200 ft ASP 476 ft